Time;durP1;ratioP1;P1;durP2;ratioP2;P2;SDS_P1;SDS_P2;PMS_P1;PMS_P2;Temp;Humidity;BMP_temperature;BMP_pressure;BME280_temperature;BME280_humidity;BME280_pressure;Samples;Min_cycle;Max_cycle;Signal;HPM_P1;HPM_P2
2022/01/03 00:01:10;;;;;;;17.92;2.38;;;8.50;99.90;;;;;;5079883;28;20056;-81
2022/01/03 00:03:37;;;;;;;14.75;2.78;;;8.60;99.90;;;;;;5050394;28;163170;-82
2022/01/03 00:06:04;;;;;;;16.63;2.30;;;8.60;99.90;;;;;;5088859;28;20050;-82
2022/01/03 00:08:30;;;;;;;14.30;2.30;;;8.70;99.90;;;;;;5081393;28;22392;-82
2022/01/03 00:10:57;;;;;;;17.30;2.60;;;8.70;99.90;;;;;;5067869;28;20047;-82
2022/01/03 00:13:24;;;;;;;15.10;2.05;;;8.70;99.90;;;;;;5046324;28;197069;-83
2022/01/03 00:15:52;;;;;;;15.52;2.53;;;8.70;99.90;;;;;;5058085;28;20462;-83
2022/01/03 00:18:19;;;;;;;21.75;2.65;;;8.80;99.90;;;;;;5068782;28;103181;-83
2022/01/03 00:20:52;;;;;;;13.95;2.15;;;8.80;99.90;;;;;;5059893;28;20056;-83
2022/01/03 00:23:22;;;;;;;17.08;2.30;;;8.80;99.90;;;;;;5047859;28;160263;-83
2022/01/03 00:25:52;;;;;;;19.45;2.58;;;8.80;99.90;;;;;;5052868;28;20048;-83
2022/01/03 00:28:54;;;;;;;23.58;2.78;;;8.80;99.90;;;;;;5046301;28;277155;-83
2022/01/03 00:31:23;;;;;;;17.77;2.47;;;8.80;99.90;;;;;;5015155;28;20076;-82
2022/01/03 00:33:54;;;;;;;19.92;2.50;;;8.80;99.90;;;;;;5018615;28;48361;-82
2022/01/03 00:36:21;;;;;;;20.70;2.80;;;8.80;99.90;;;;;;5033699;28;20068;-82
2022/01/03 00:38:47;;;;;;;22.75;3.45;;;8.90;99.90;;;;;;5020468;28;20431;-82
2022/01/03 00:41:13;;;;;;;25.95;3.03;;;8.80;99.90;;;;;;5031145;28;20530;-82
2022/01/03 00:43:40;;;;;;;22.83;2.75;;;8.80;99.90;;;;;;5003938;28;144304;-82
2022/01/03 00:46:07;;;;;;;21.08;2.83;;;8.90;99.90;;;;;;5047615;28;20568;-82
2022/01/03 00:48:34;;;;;;;22.88;3.35;;;8.90;99.90;;;;;;5017075;28;148278;-82
2022/01/03 00:51:03;;;;;;;26.92;3.00;;;8.90;99.90;;;;;;5038381;28;20044;-82
2022/01/03 00:53:30;;;;;;;29.42;3.25;;;8.90;99.90;;;;;;5028809;28;66596;-81
2022/01/03 00:56:02;;;;;;;20.40;2.75;;;8.90;99.90;;;;;;5057944;28;20055;-82
2022/01/03 00:58:45;;;;;;;;;;;8.90;99.90;;;;;;5028382;28;102458;-82
2022/01/03 01:01:14;;;;;;;19.30;2.95;;;9.00;99.90;;;;;;5037007;28;19931;-83
2022/01/03 01:03:41;;;;;;;23.77;3.50;;;9.00;99.90;;;;;;5004586;28;177953;-82
2022/01/03 01:06:08;;;;;;;25.98;3.40;;;8.90;99.90;;;;;;5038732;28;20191;-82
2022/01/03 01:08:37;;;;;;;28.23;3.53;;;9.00;99.90;;;;;;5057242;28;188549;-82
2022/01/03 01:11:06;;;;;;;27.38;3.78;;;9.00;99.90;;;;;;5074485;28;20050;-83
2022/01/03 01:13:35;;;;;;;26.45;3.10;;;9.00;99.90;;;;;;5049683;28;51829;-83
2022/01/03 01:16:06;;;;;;;29.00;3.17;;;9.00;99.90;;;;;;5086956;28;20051;-82
2022/01/03 01:18:36;;;;;;;;;;;9.00;99.90;;;;;;5073395;28;105505;-82
2022/01/03 01:21:04;;;;;;;23.75;3.00;;;8.90;99.90;;;;;;5077871;28;19923;-81
2022/01/03 01:23:31;;;;;;;24.20;3.08;;;8.90;99.90;;;;;;5084654;28;25460;-82
2022/01/03 01:28:43;;;;;;;25.98;3.30;;;8.90;99.90;;;;;;5061307;28;52794;-83
2022/01/03 01:31:15;;;;;;;20.85;3.25;;;8.90;99.90;;;;;;5072442;28;20054;-82
2022/01/03 01:33:45;;;;;;;30.85;3.50;;;9.00;99.90;;;;;;5081693;28;23296;-83
2022/01/03 01:36:12;;;;;;;26.23;3.88;;;8.90;99.90;;;;;;5072699;28;20052;-82
2022/01/03 01:38:40;;;;;;;36.80;4.47;;;9.10;99.90;;;;;;5069041;28;20032;-83
2022/01/03 01:41:08;;;;;;;28.38;3.85;;;9.10;99.90;;;;;;5071300;28;20048;-83
2022/01/03 01:43:39;;;;;;;32.05;4.05;;;9.10;99.90;;;;;;5043668;28;225375;-83
2022/01/03 01:46:18;;;;;;;25.20;3.88;;;9.20;99.90;;;;;;5058354;28;20041;-83
2022/01/03 01:48:50;;;;;;;26.08;3.58;;;9.10;99.90;;;;;;5062731;28;188312;-81
2022/01/03 01:51:21;;;;;;;27.88;3.67;;;9.10;99.90;;;;;;5099536;28;20046;-81
2022/01/03 01:53:53;;;;;;;25.95;3.17;;;9.10;99.90;;;;;;5067218;28;37421;-82
2022/01/03 01:56:23;;;;;;;27.77;3.60;;;9.10;99.90;;;;;;5094526;28;20048;-82
2022/01/03 01:59:07;;;;;;;25.55;3.90;;;9.10;99.90;;;;;;5050750;28;88196;-82
2022/01/03 02:01:47;;;;;;;26.45;3.65;;;9.20;99.90;;;;;;5060387;28;20413;-82
2022/01/03 02:04:27;;;;;;;26.02;3.67;;;9.20;99.90;;;;;;5022125;28;127248;-83
2022/01/03 02:06:56;;;;;;;23.48;3.45;;;9.20;99.90;;;;;;5056018;28;20052;-82
2022/01/03 02:09:48;;;;;;;27.95;3.63;;;9.30;99.90;;;;;;5052991;28;272798;-83
2022/01/03 02:12:16;;;;;;;30.15;3.97;;;9.20;99.90;;;;;;5035586;28;252044;-83
2022/01/03 02:14:44;;;;;;;23.33;3.67;;;9.20;99.90;;;;;;5036721;28;20045;-82
2022/01/03 02:17:10;;;;;;;28.33;4.05;;;9.20;99.90;;;;;;5036464;28;272729;-83
2022/01/03 02:19:37;;;;;;;30.40;3.70;;;9.20;99.90;;;;;;5039123;28;20504;-83
2022/01/03 02:22:04;;;;;;;30.25;3.78;;;9.10;99.90;;;;;;5058828;28;240306;-83
2022/01/03 02:24:31;;;;;;;26.90;3.50;;;9.10;99.90;;;;;;5076700;28;20060;-82
2022/01/03 02:27:01;;;;;;;30.10;3.53;;;9.10;99.90;;;;;;5097246;28;20051;-83
2022/01/03 02:29:28;;;;;;;27.02;3.55;;;9.10;99.90;;;;;;5054348;28;20024;-82
2022/01/03 02:31:54;;;;;;;28.15;3.17;;;9.10;99.90;;;;;;5072605;28;20052;-83
2022/01/03 02:34:20;;;;;;;28.60;3.90;;;9.10;99.90;;;;;;5045430;28;205982;-83
2022/01/03 02:36:47;;;;;;;26.58;4.35;;;9.00;99.90;;;;;;5061094;28;20056;-83
2022/01/03 02:39:14;;;;;;;29.15;4.05;;;9.00;99.90;;;;;;5049745;28;134213;-83
2022/01/03 02:41:40;;;;;;;25.40;3.33;;;9.00;99.90;;;;;;5061687;28;20066;-82
2022/01/03 02:44:06;;;;;;;29.27;3.92;;;9.00;99.90;;;;;;5046334;28;108356;-82
2022/01/03 02:46:32;;;;;;;21.20;3.45;;;9.10;99.90;;;;;;5043369;28;20040;-82
2022/01/03 02:49:03;;;;;;;30.45;4.18;;;9.10;99.90;;;;;;5069477;28;25579;-83
2022/01/03 02:51:29;;;;;;;30.27;4.37;;;9.00;99.90;;;;;;5054654;28;20052;-82
2022/01/03 02:53:55;;;;;;;26.58;3.92;;;9.10;99.90;;;;;;5080329;28;247626;-82
2022/01/03 02:56:21;;;;;;;27.80;4.20;;;9.10;99.90;;;;;;5064204;28;20079;-82
2022/01/03 02:58:48;;;;;;;29.05;3.35;;;9.10;99.90;;;;;;5045364;28;73390;-82
2022/01/03 03:01:14;;;;;;;27.75;3.78;;;9.10;99.90;;;;;;5060347;28;20056;-82
2022/01/03 03:03:41;;;;;;;28.27;3.78;;;9.10;99.90;;;;;;5028860;28;87651;-83
2022/01/03 03:06:07;;;;;;;28.40;3.65;;;9.00;99.90;;;;;;5059386;28;20041;-82
2022/01/03 03:08:33;;;;;;;29.38;3.78;;;9.00;99.90;;;;;;5052611;28;158003;-82
2022/01/03 03:11:00;;;;;;;24.42;3.47;;;9.00;99.90;;;;;;5058431;28;20052;-84
2022/01/03 03:13:27;;;;;;;27.92;4.00;;;9.00;99.90;;;;;;5059299;28;183001;-83
2022/01/03 03:15:53;;;;;;;29.58;3.63;;;9.00;99.90;;;;;;5056380;28;20095;-83
2022/01/03 03:18:19;;;;;;;26.65;3.80;;;9.00;99.90;;;;;;5072644;28;264216;-83
2022/01/03 03:20:45;;;;;;;29.23;3.80;;;9.00;99.90;;;;;;5066553;28;20471;-83
2022/01/03 03:23:12;;;;;;;31.80;4.05;;;9.00;99.90;;;;;;5073283;28;276832;-84
2022/01/03 03:25:38;;;;;;;27.63;3.83;;;8.90;99.90;;;;;;5076250;28;20055;-82
2022/01/03 03:28:10;;;;;;;30.23;4.13;;;9.00;99.90;;;;;;5068329;28;50981;-82
2022/01/03 03:30:47;;;;;;;27.83;4.28;;;8.90;99.90;;;;;;5084174;28;20058;-83
2022/01/03 03:33:15;;;;;;;35.80;5.22;;;8.80;99.90;;;;;;5051574;28;236121;-83
2022/01/03 03:35:42;;;;;;;29.50;4.07;;;8.80;99.90;;;;;;5068903;28;20053;-82
2022/01/03 03:38:08;;;;;;;32.30;4.68;;;8.80;99.90;;;;;;5041675;28;188121;-83
2022/01/03 03:40:34;;;;;;;31.52;4.00;;;8.80;99.90;;;;;;5066265;28;20056;-83
2022/01/03 03:43:00;;;;;;;34.83;4.90;;;8.80;99.90;;;;;;5051644;28;21625;-84
2022/01/03 03:45:27;;;;;;;27.67;3.90;;;8.80;99.90;;;;;;5060798;28;20075;-83
2022/01/03 03:47:53;;;;;;;29.20;4.18;;;8.80;99.90;;;;;;5039949;28;194199;-83
2022/01/03 03:50:20;;;;;;;36.33;4.35;;;8.80;99.90;;;;;;5058624;28;20071;-83
2022/01/03 03:52:46;;;;;;;32.05;4.07;;;8.90;99.90;;;;;;5059591;28;45936;-83
2022/01/03 03:55:12;;;;;;;35.10;4.72;;;8.90;99.90;;;;;;5052217;28;20052;-83
2022/01/03 03:57:39;;;;;;;27.20;3.85;;;8.90;99.90;;;;;;5062120;28;113757;-82
2022/01/03 04:00:16;;;;;;;32.00;4.50;;;8.80;99.90;;;;;;5084377;28;20072;-82
2022/01/03 04:02:42;;;;;;;32.13;4.30;;;8.90;99.90;;;;;;5048765;28;159350;-82
2022/01/03 04:05:09;;;;;;;32.45;4.53;;;8.90;99.90;;;;;;5085621;28;20048;-84
2022/01/03 04:07:36;;;;;;;32.60;4.07;;;8.90;99.90;;;;;;5036149;28;131558;-82
2022/01/03 04:10:04;;;;;;;31.45;4.32;;;9.00;99.90;;;;;;5057244;28;20063;-83
2022/01/03 04:12:30;;;;;;;31.27;4.22;;;9.00;99.90;;;;;;5033247;28;150214;-82
2022/01/03 04:14:56;;;;;;;33.28;5.35;;;8.90;99.90;;;;;;5069074;28;20060;-84
2022/01/03 04:17:22;;;;;;;30.42;4.03;;;8.90;99.90;;;;;;5068698;28;266213;-84
2022/01/03 04:19:49;;;;;;;31.25;4.40;;;8.90;99.90;;;;;;5070872;28;20048;-82
2022/01/03 04:22:15;;;;;;;31.53;4.37;;;8.90;99.90;;;;;;5046706;28;261013;-83
2022/01/03 04:24:41;;;;;;;30.67;4.18;;;8.90;99.90;;;;;;5071991;28;20489;-84
2022/01/03 04:27:08;;;;;;;35.75;5.25;;;8.90;99.90;;;;;;5034712;28;251494;-83
2022/01/03 04:29:34;;;;;;;29.27;4.03;;;8.90;99.90;;;;;;5075683;28;20048;-83
2022/01/03 04:32:00;;;;;;;28.58;4.57;;;8.90;99.90;;;;;;5058186;28;20052;-84
2022/01/03 04:34:27;;;;;;;30.30;3.75;;;8.90;99.90;;;;;;5065786;28;115793;-83
2022/01/03 04:36:53;;;;;;;27.73;4.25;;;8.90;99.90;;;;;;5054158;28;20059;-83
2022/01/03 04:39:19;;;;;;;37.53;4.90;;;8.90;99.90;;;;;;5064646;28;273099;-82
2022/01/03 04:41:45;;;;;;;39.17;4.93;;;8.90;99.90;;;;;;5053522;28;20067;-84
2022/01/03 04:44:11;;;;;;;31.40;4.03;;;8.90;99.90;;;;;;5072153;28;20055;-84
2022/01/03 04:46:38;;;;;;;34.03;5.40;;;8.90;99.90;;;;;;5053057;28;20060;-83
2022/01/03 04:49:06;;;;;;;34.08;4.68;;;8.90;99.90;;;;;;5054858;28;142063;-83
2022/01/03 04:51:33;;;;;;;40.90;5.35;;;8.90;99.90;;;;;;5050393;28;20056;-84
2022/01/03 04:53:59;;;;;;;32.35;4.30;;;8.90;99.90;;;;;;5059317;28;132680;-84
2022/01/03 04:56:28;;;;;;;34.75;4.50;;;8.90;99.90;;;;;;5052416;28;20055;-83
2022/01/03 04:58:56;;;;;;;35.00;4.65;;;8.90;99.90;;;;;;5064498;28;220529;-83
2022/01/03 05:01:23;;;;;;;33.60;5.00;;;9.00;99.90;;;;;;5049823;28;20051;-83
2022/01/03 05:03:49;;;;;;;36.33;4.97;;;8.90;99.90;;;;;;5019512;28;188122;-83
2022/01/03 05:06:17;;;;;;;36.63;4.95;;;9.00;99.90;;;;;;5060722;28;20048;-83
2022/01/03 05:08:43;;;;;;;28.52;4.35;;;9.00;99.90;;;;;;5075960;28;38216;-84
2022/01/03 05:11:10;;;;;;;30.45;4.50;;;9.00;99.90;;;;;;5072792;28;20677;-83
2022/01/03 05:13:36;;;;;;;33.08;4.38;;;9.00;99.90;;;;;;5045190;28;223657;-83
2022/01/03 05:16:03;;;;;;;38.38;4.90;;;8.90;99.90;;;;;;5042178;28;20044;-83
2022/01/03 05:18:30;;;;;;;38.63;5.30;;;9.00;99.90;;;;;;5057034;28;77632;-84
2022/01/03 05:20:56;;;;;;;32.53;5.03;;;9.00;99.90;;;;;;5072583;28;20045;-84
2022/01/03 05:23:23;;;;;;;44.35;6.07;;;9.00;99.90;;;;;;5048942;28;34138;-83
2022/01/03 05:25:50;;;;;;;38.47;5.07;;;9.00;99.90;;;;;;5053650;28;20064;-83
2022/01/03 05:28:16;;;;;;;35.50;5.45;;;8.90;99.90;;;;;;5034661;28;253152;-83
2022/01/03 05:30:43;;;;;;;30.92;4.43;;;8.90;99.90;;;;;;5033209;28;20056;-83
2022/01/03 05:33:09;;;;;;;35.95;4.20;;;9.00;99.90;;;;;;5037425;28;208330;-83
2022/01/03 05:35:35;;;;;;;36.35;4.68;;;8.90;99.90;;;;;;5074834;28;20060;-82
2022/01/03 05:38:02;;;;;;;37.72;4.97;;;8.90;99.90;;;;;;5070107;28;148842;-84
2022/01/03 05:40:28;;;;;;;44.42;5.63;;;8.90;99.90;;;;;;5064829;28;20048;-83
2022/01/03 05:42:55;;;;;;;39.08;4.78;;;8.90;99.90;;;;;;5068403;28;110130;-83
2022/01/03 05:45:21;;;;;;;35.50;4.55;;;8.90;99.90;;;;;;5034911;28;20053;-83
2022/01/03 05:47:48;;;;;;;38.67;4.78;;;8.90;99.90;;;;;;5041951;28;75027;-84
2022/01/03 05:50:16;;;;;;;42.25;5.75;;;8.90;99.90;;;;;;5036538;28;20055;-83
2022/01/03 05:52:43;;;;;;;35.88;4.80;;;8.90;99.90;;;;;;5043600;28;181535;-83
2022/01/03 05:55:10;;;;;;;40.60;5.35;;;8.80;99.90;;;;;;5068134;28;20048;-83
2022/01/03 05:57:36;;;;;;;37.63;5.43;;;8.80;99.90;;;;;;5058887;28;123669;-82
2022/01/03 06:00:04;;;;;;;38.08;5.03;;;8.80;99.90;;;;;;5061895;28;20067;-83
2022/01/03 06:02:36;;;;;;;37.83;4.95;;;8.80;99.90;;;;;;5049030;28;215745;-83
2022/01/03 06:05:04;;;;;;;;;;;8.90;99.90;;;;;;5064956;28;20044;-83
2022/01/03 06:07:30;;;;;;;37.40;4.97;;;8.80;99.90;;;;;;5060495;28;198649;-82
2022/01/03 06:09:57;;;;;;;33.17;4.95;;;8.80;99.90;;;;;;5085315;28;20064;-82
2022/01/03 06:12:23;;;;;;;35.70;5.20;;;8.80;99.90;;;;;;5050210;28;267797;-83
2022/01/03 06:14:49;;;;;;;40.75;5.35;;;8.80;99.90;;;;;;5033752;28;20049;-83
2022/01/03 06:17:16;;;;;;;39.08;5.65;;;8.80;99.90;;;;;;5015885;28;256075;-83
2022/01/03 06:19:42;;;;;;;39.85;5.32;;;8.90;99.90;;;;;;5054877;28;20402;-83
2022/01/03 06:22:09;;;;;;;42.35;5.22;;;8.90;99.90;;;;;;5034307;28;259179;-82
2022/01/03 06:24:37;;;;;;;36.58;5.18;;;8.90;99.90;;;;;;5041312;28;20048;-83
2022/01/03 06:27:04;;;;;;;30.05;4.18;;;8.90;99.90;;;;;;5036669;28;252647;-83
2022/01/03 06:29:31;;;;;;;37.38;5.35;;;8.90;99.90;;;;;;5052397;28;20051;-83
2022/01/03 06:31:57;;;;;;;35.53;4.93;;;8.90;99.90;;;;;;5051219;28;20052;-83
2022/01/03 06:34:24;;;;;;;38.15;5.10;;;8.80;99.90;;;;;;5042833;28;131780;-82
2022/01/03 06:36:50;;;;;;;42.17;5.28;;;8.80;99.90;;;;;;5041019;28;20324;-82
2022/01/03 06:39:17;;;;;;;39.42;5.40;;;8.80;99.90;;;;;;5021292;28;254725;-83
2022/01/03 06:41:44;;;;;;;36.45;5.38;;;8.80;99.90;;;;;;5064712;28;20064;-82
2022/01/03 06:44:10;;;;;;;36.63;5.07;;;8.80;99.90;;;;;;5055213;28;169879;-84
2022/01/03 06:46:37;;;;;;;38.70;5.32;;;8.80;99.90;;;;;;5073438;28;20056;-83
2022/01/03 06:49:05;;;;;;;41.47;5.57;;;8.80;99.90;;;;;;5052079;28;74936;-83
2022/01/03 06:51:34;;;;;;;44.13;5.65;;;8.70;99.90;;;;;;5068793;28;20055;-84
2022/01/03 06:54:05;;;;;;;43.65;5.88;;;8.80;99.90;;;;;;5032834;28;20080;-83
2022/01/03 06:56:32;;;;;;;42.08;6.28;;;8.80;99.90;;;;;;5078332;28;20048;-82
2022/01/03 06:58:58;;;;;;;39.22;5.10;;;8.80;99.90;;;;;;5046328;28;135767;-84
2022/01/03 07:01:24;;;;;;;32.60;4.45;;;8.80;99.90;;;;;;5059997;28;20048;-83
2022/01/03 07:03:50;;;;;;;47.35;6.03;;;8.80;99.90;;;;;;5009954;28;172151;-82
2022/01/03 07:06:17;;;;;;;35.90;5.35;;;8.80;99.90;;;;;;5070263;28;20492;-83
2022/01/03 07:08:43;;;;;;;49.47;6.25;;;8.80;99.90;;;;;;5048448;28;124687;-83
2022/01/03 07:11:09;;;;;;;28.55;4.53;;;8.80;99.90;;;;;;5076525;28;20060;-83
2022/01/03 07:13:43;;;;;;;38.38;6.18;;;8.70;99.90;;;;;;5060680;28;240940;-83
2022/01/03 07:18:59;;;;;;;37.22;5.43;;;8.80;99.90;;;;;;5056789;28;145186;-84
2022/01/03 07:21:32;;;;;;;40.30;5.80;;;8.70;99.90;;;;;;5057930;28;20357;-84
2022/01/03 07:23:58;;;;;;;45.63;5.50;;;8.80;99.90;;;;;;5069160;28;266777;-83
2022/01/03 07:26:26;;;;;;;33.13;4.13;;;8.70;99.90;;;;;;5076484;28;20789;-84
2022/01/03 07:28:53;;;;;;;36.00;4.97;;;8.80;99.90;;;;;;5060464;28;100486;-82
2022/01/03 07:31:19;;;;;;;42.38;4.88;;;8.80;99.90;;;;;;5058062;28;20428;-83
2022/01/03 07:33:47;;;;;;;38.88;5.03;;;8.80;99.90;;;;;;5067919;28;215853;-83
2022/01/03 07:36:14;;;;;;;37.95;4.95;;;8.80;99.90;;;;;;5095827;28;20590;-84
2022/01/03 07:38:40;;;;;;;39.78;4.57;;;8.80;99.90;;;;;;5070096;28;20078;-83
2022/01/03 07:41:08;;;;;;;44.72;5.93;;;8.80;99.90;;;;;;5059524;28;20586;-83
2022/01/03 07:43:34;;;;;;;40.22;5.65;;;8.90;99.90;;;;;;5060282;28;119475;-83
2022/01/03 07:46:00;;;;;;;38.08;4.80;;;8.90;99.90;;;;;;5054103;28;20504;-83
2022/01/03 07:48:26;;;;;;;37.97;4.97;;;9.00;99.90;;;;;;5062540;28;53745;-83
2022/01/03 07:50:52;;;;;;;33.05;4.53;;;8.90;99.90;;;;;;5081754;28;20051;-85
2022/01/03 07:53:19;;;;;;;39.70;5.85;;;9.00;99.90;;;;;;5064247;28;211477;-84
2022/01/03 07:55:45;;;;;;;33.75;4.43;;;9.00;99.90;;;;;;5078768;28;20044;-83
2022/01/03 07:58:14;;;;;;;41.88;5.35;;;9.00;99.90;;;;;;5075629;28;259522;-83
2022/01/03 08:00:41;;;;;;;32.20;5.10;;;9.10;99.90;;;;;;5059715;28;20058;-83
2022/01/03 08:03:07;;;;;;;46.95;5.40;;;9.10;99.90;;;;;;5057955;28;254763;-83
2022/01/03 08:05:33;;;;;;;38.53;5.28;;;9.10;99.90;;;;;;5072151;28;20497;-83
2022/01/03 08:07:59;;;;;;;37.00;4.80;;;9.10;99.90;;;;;;5057992;28;160799;-82
2022/01/03 08:10:25;;;;;;;34.38;4.97;;;9.10;99.90;;;;;;5080298;28;20052;-82
2022/01/03 08:12:51;;;;;;;33.80;4.63;;;9.20;99.90;;;;;;5071476;28;215996;-82
2022/01/03 08:15:17;;;;;;;34.75;4.95;;;9.20;99.90;;;;;;5091568;28;20066;-81
2022/01/03 08:17:46;;;;;;;35.72;5.13;;;9.20;99.90;;;;;;5052264;28;147499;-83
2022/01/03 08:20:12;;;;;;;37.33;4.35;;;9.30;99.90;;;;;;5037355;28;20110;-81
2022/01/03 08:22:39;;;;;;;31.60;4.60;;;9.30;99.90;;;;;;5044071;28;48370;-81
2022/01/03 08:25:05;;;;;;;34.22;5.10;;;9.30;99.90;;;;;;5089818;28;20062;-82
2022/01/03 08:27:32;;;;;;;33.55;4.93;;;9.40;99.90;;;;;;5055017;28;134396;-82
2022/01/03 08:29:58;;;;;;;32.95;5.18;;;9.40;99.90;;;;;;5059467;28;20067;-82
2022/01/03 08:32:24;;;;;;;36.88;5.03;;;9.40;99.90;;;;;;5056001;28;241435;-82
2022/01/03 08:34:51;;;;;;;36.22;4.78;;;9.30;99.90;;;;;;5071653;28;20072;-82
2022/01/03 08:37:17;;;;;;;40.00;4.82;;;9.30;99.90;;;;;;5051781;28;275379;-81
2022/01/03 08:39:43;;;;;;;36.90;5.88;;;9.40;99.90;;;;;;5091649;28;20043;-81
2022/01/03 08:42:09;;;;;;;34.03;4.57;;;9.40;99.90;;;;;;5052285;28;273072;-82
2022/01/03 08:44:35;;;;;;;36.95;4.38;;;9.40;99.90;;;;;;5060815;28;20063;-82
2022/01/03 08:47:01;;;;;;;40.30;5.35;;;9.40;99.90;;;;;;5078598;28;20052;-82
2022/01/03 08:49:27;;;;;;;39.85;4.90;;;9.40;99.90;;;;;;5046069;28;20051;-82
2022/01/03 08:51:54;;;;;;;36.22;4.80;;;9.40;99.90;;;;;;5057325;28;20064;-85
2022/01/03 08:54:20;;;;;;;31.05;4.57;;;9.40;99.90;;;;;;5063453;28;55241;-80
2022/01/03 08:56:46;;;;;;;36.30;4.68;;;9.40;99.90;;;;;;5075075;28;20051;-81
2022/01/03 08:59:12;;;;;;;36.45;4.82;;;9.40;99.90;;;;;;5058014;28;202906;-82
2022/01/03 09:01:38;;;;;;;33.85;4.30;;;9.50;99.90;;;;;;5072995;28;20518;-84
2022/01/03 09:04:04;;;;;;;36.05;5.03;;;9.50;99.90;;;;;;5042528;28;165344;-86
2022/01/03 09:06:31;;;;;;;27.63;4.13;;;9.50;99.90;;;;;;5071852;28;20052;-84
2022/01/03 09:08:57;;;;;;;33.15;4.10;;;9.60;99.90;;;;;;5053016;28;231089;-82
2022/01/03 09:11:23;;;;;;;37.42;5.75;;;9.60;99.90;;;;;;5070355;28;20047;-86
2022/01/03 09:13:49;;;;;;;29.10;4.43;;;9.60;99.90;;;;;;5054414;28;197429;-83
2022/01/03 09:16:15;;;;;;;33.00;5.22;;;9.60;99.90;;;;;;5074675;28;20052;-84
2022/01/03 09:18:42;;;;;;;36.22;4.60;;;9.60;99.90;;;;;;5038240;28;210594;-83
2022/01/03 09:21:09;;;;;;;29.70;5.05;;;9.60;99.90;;;;;;5060299;28;20056;-84
2022/01/03 09:23:39;;;;;;;33.13;4.28;;;9.60;99.90;;;;;;5056834;28;96592;-83
2022/01/03 09:28:53;;;;;;;28.88;4.38;;;9.60;99.90;;;;;;5036683;28;204034;-85
2022/01/03 09:31:32;;;;;;;27.48;4.68;;;9.60;99.90;;;;;;5055498;28;20056;-84
2022/01/03 09:34:01;;;;;;;30.23;4.18;;;9.60;99.90;;;;;;5022701;28;225289;-84
2022/01/03 09:36:29;;;;;;;32.97;4.53;;;9.60;99.90;;;;;;5042279;28;20064;-84
2022/01/03 09:38:56;;;;;;;33.40;5.15;;;9.70;99.90;;;;;;5045263;28;58076;-85
2022/01/03 09:41:24;;;;;;;32.53;3.95;;;9.70;99.90;;;;;;5064537;28;20063;-85
2022/01/03 09:44:11;;;;;;;37.42;5.30;;;9.70;99.90;;;;;;5045600;28;161552;-84
2022/01/03 09:46:43;;;;;;;35.45;4.80;;;9.70;99.90;;;;;;5063769;28;20416;-88
2022/01/03 09:49:11;;;;;;;41.83;5.47;;;9.70;99.90;;;;;;5044953;28;187189;-84
2022/01/03 09:51:39;;;;;;;35.50;4.13;;;9.70;99.90;;;;;;5061367;28;20087;-84
2022/01/03 09:54:12;;;;;;;31.67;4.82;;;9.70;99.90;;;;;;5063066;28;20056;-84
2022/01/03 09:56:40;;;;;;;30.35;5.18;;;9.70;99.90;;;;;;5059621;28;20497;-83
2022/01/03 09:59:07;;;;;;;36.22;4.95;;;9.80;99.90;;;;;;5040625;28;277074;-84
2022/01/03 10:01:34;;;;;;;37.55;6.32;;;9.70;99.90;;;;;;5057540;28;20052;-83
2022/01/03 10:04:01;;;;;;;35.95;5.13;;;9.80;99.90;;;;;;5074492;28;272376;-83
2022/01/03 10:20:56;;;;;;;30.50;3.95;;;9.90;99.90;;;;;;5012882;28;20057;-70
2022/01/03 10:23:23;;;;;;;35.42;4.70;;;9.80;99.90;;;;;;4965764;28;165166;-70
2022/01/03 10:25:50;;;;;;;43.00;5.45;;;9.80;99.90;;;;;;4985749;28;20057;-69
2022/01/03 10:28:28;;;;;;;31.15;4.20;;;9.80;99.90;;;;;;5010925;23;34490;-72
2022/01/03 10:30:54;;;;;;;35.95;4.78;;;9.90;99.90;;;;;;5004316;28;20050;-70
2022/01/03 10:33:23;;;;;;;33.80;4.88;;;9.90;99.90;;;;;;5004305;28;250541;-70
2022/01/03 10:35:56;;;;;;;29.05;4.28;;;9.90;99.90;;;;;;5031773;28;20053;-69
2022/01/03 10:38:37;;;;;;;32.90;5.05;;;9.90;99.90;;;;;;5006862;28;265061;-70
2022/01/03 10:41:10;;;;;;;36.15;5.45;;;10.00;99.90;;;;;;5012483;28;20046;-70
2022/01/03 10:43:37;;;;;;;31.13;4.65;;;9.90;99.90;;;;;;5002021;28;274657;-70
2022/01/03 10:46:36;;;;;;;31.75;4.03;;;10.00;99.90;;;;;;5014803;28;20045;-70
2022/01/03 10:49:16;;;;;;;33.78;4.88;;;10.00;99.90;;;;;;4922979;28;186010;-70
2022/01/03 10:51:42;;;;;;;34.97;4.68;;;10.10;99.90;;;;;;4935515;29;20056;-70
2022/01/03 10:54:11;;;;;;;29.00;4.28;;;10.10;99.90;;;;;;4924495;28;100516;-68
2022/01/03 10:56:39;;;;;;;30.40;4.50;;;10.10;99.90;;;;;;4948399;29;20062;-70
2022/01/03 10:59:14;;;;;;;30.00;4.85;;;10.00;99.90;;;;;;4933547;28;42052;-70
2022/01/03 11:01:42;;;;;;;37.47;5.40;;;10.10;99.90;;;;;;4945940;29;20165;-70
2022/01/03 11:04:11;;;;;;;31.50;5.05;;;10.10;99.90;;;;;;4915870;28;146396;-70
2022/01/03 11:11:49;;;;;;;33.30;4.97;;;10.10;99.90;;;;;;4943331;29;20050;-70
2022/01/03 11:14:34;;;;;;;27.13;4.30;;;10.20;99.90;;;;;;4944042;28;229672;-71
2022/01/03 11:17:20;;;;;;;34.28;5.15;;;10.20;99.90;;;;;;4950362;28;20051;-69
2022/01/03 11:19:46;;;;;;;31.20;4.55;;;10.20;99.90;;;;;;4921437;29;20046;-70
2022/01/03 11:22:40;;;;;;;31.88;4.55;;;10.20;99.90;;;;;;4920252;28;101562;-70
2022/01/03 11:25:07;;;;;;;29.20;5.07;;;10.20;99.90;;;;;;4998388;28;20102;-71
2022/01/03 11:27:38;;;;;;;28.58;4.40;;;10.20;99.90;;;;;;4990654;28;259844;-70
2022/01/03 11:30:11;;;;;;;27.58;4.68;;;10.20;99.90;;;;;;4963569;28;20050;-69
2022/01/03 11:32:42;;;;;;;27.38;4.00;;;10.10;99.90;;;;;;4956774;28;131941;-71
2022/01/03 11:35:10;;;;;;;33.67;4.70;;;10.20;99.90;;;;;;5015678;28;20061;-70
2022/01/03 11:37:40;;;;;;;23.95;3.58;;;10.30;99.90;;;;;;4984356;28;254191;-70
2022/01/03 11:40:09;;;;;;;35.90;4.97;;;10.30;99.90;;;;;;4985107;28;20057;-70
2022/01/03 11:42:36;;;;;;;29.65;4.68;;;10.30;99.90;;;;;;4971965;28;266420;-70
2022/01/03 11:45:02;;;;;;;27.08;4.22;;;10.40;99.90;;;;;;5022477;28;20054;-70
2022/01/03 11:47:30;;;;;;;31.85;4.40;;;10.40;99.90;;;;;;5003319;28;253095;-70
2022/01/03 11:49:57;;;;;;;35.55;4.60;;;10.50;99.90;;;;;;5025299;28;20054;-70
2022/01/03 11:52:23;;;;;;;22.77;4.50;;;10.50;99.90;;;;;;5000207;28;263329;-69
2022/01/03 11:54:55;;;;;;;27.75;4.28;;;10.60;99.90;;;;;;5031382;28;20049;-70
2022/01/03 12:05:54;;;;;;;27.42;4.38;;;10.70;99.90;;;;;;5005229;28;20052;-70
2022/01/03 12:08:32;;;;;;;24.25;4.57;;;10.70;99.90;;;;;;5008174;28;259823;-70
2022/01/03 12:11:00;;;;;;;32.85;4.20;;;10.70;99.90;;;;;;5022558;28;20045;-70
2022/01/03 12:13:49;;;;;;;28.73;4.93;;;10.70;99.90;;;;;;5007945;28;257478;-69
2022/01/03 12:16:16;;;;;;;31.25;3.72;;;10.90;99.90;;;;;;5002580;28;20409;-69
2022/01/03 12:19:01;;;;;;;23.30;4.18;;;11.00;99.90;;;;;;4993522;28;275103;-69
2022/01/03 12:21:55;;;;;;;22.45;3.63;;;11.00;99.90;;;;;;5023563;28;20053;-70
2022/01/03 12:24:36;;;;;;;20.35;3.90;;;11.20;99.90;;;;;;5002354;28;253378;-69
2022/01/03 12:27:14;;;;;;;27.98;4.00;;;11.60;99.90;;;;;;5032630;28;270894;-69
2022/01/03 12:30:08;;;;;;;26.30;4.20;;;12.20;99.90;;;;;;5008640;28;20429;-67
2022/01/03 12:32:37;;;;;;;29.15;4.07;;;11.90;99.90;;;;;;4982329;28;36359;-69
2022/01/03 12:35:24;;;;;;;32.92;4.72;;;11.60;99.90;;;;;;5010654;28;20073;-68
2022/01/03 12:37:53;;;;;;;31.55;4.35;;;11.50;99.90;;;;;;5010307;28;262102;-69
2022/01/03 12:40:28;;;;;;;27.75;4.47;;;11.30;99.90;;;;;;5024749;28;20058;-69
2022/01/03 12:42:56;;;;;;;26.58;5.28;;;11.50;99.90;;;;;;5007987;28;269371;-70
2022/01/03 12:45:25;;;;;;;31.55;4.47;;;11.80;99.90;;;;;;5018134;28;20064;-68
2022/01/03 12:47:52;;;;;;;28.52;4.90;;;11.80;99.90;;;;;;4994803;28;39906;-69
2022/01/03 12:50:20;;;;;;;27.40;4.97;;;11.90;99.90;;;;;;5010200;28;20462;-69
2022/01/03 12:52:46;;;;;;;21.80;3.83;;;11.60;99.90;;;;;;4991808;28;248628;-69
2022/01/03 12:55:38;;;;;;;29.25;4.95;;;11.30;99.90;;;;;;5017892;28;20164;-69
2022/01/03 12:58:16;;;;;;;27.77;4.65;;;11.10;99.90;;;;;;5000513;28;37409;-70
2022/01/03 13:00:56;;;;;;;28.08;4.82;;;10.90;99.90;;;;;;5006810;28;20050;-69
2022/01/03 13:03:47;;;;;;;33.05;5.03;;;10.80;99.90;;;;;;4985166;28;252499;-69
2022/01/03 13:06:25;;;;;;;25.35;4.40;;;10.70;99.90;;;;;;5002547;28;20054;-69
2022/01/03 13:08:54;;;;;;;28.52;5.47;;;10.70;99.90;;;;;;5003713;28;257014;-69
2022/01/03 13:11:22;;;;;;;31.60;5.00;;;10.80;99.90;;;;;;5013840;28;20041;-69
2022/01/03 13:14:01;;;;;;;31.08;4.85;;;10.90;99.90;;;;;;5016754;28;20056;-69
2022/01/03 13:16:36;;;;;;;37.95;5.47;;;10.80;99.90;;;;;;5031814;28;20050;-70
2022/01/03 13:19:27;;;;;;;32.97;4.95;;;10.90;99.90;;;;;;5005887;28;277630;-69
2022/01/03 13:21:56;;;;;;;28.30;5.00;;;10.90;99.90;;;;;;5026585;28;20453;-70
2022/01/03 13:24:24;;;;;;;30.90;4.82;;;11.10;99.90;;;;;;5006982;28;260750;-70
2022/01/03 13:27:15;;;;;;;33.05;4.90;;;10.90;99.90;;;;;;5004539;28;20387;-69
2022/01/03 13:29:43;;;;;;;28.70;4.00;;;11.10;99.90;;;;;;4989664;28;20558;-69